Time;durP1;ratioP1;P1;durP2;ratioP2;P2;SDS_P1;SDS_P2;PMS_P1;PMS_P2;Temp;Humidity;BMP_temperature;BMP_pressure;BME280_temperature;BME280_humidity;BME280_pressure;Samples;Min_cycle;Max_cycle;Signal;HPM_P1;HPM_P2
2022/07/02 00:00:27;;;;;;;2.58;1.92;;;;;;;14.27;65.48;100936.00;5054234;28;20049;-60
2022/07/02 00:02:55;;;;;;;3.30;2.05;;;;;;;14.26;65.16;100939.13;5053831;28;20060;-61
2022/07/02 00:05:24;;;;;;;4.63;2.10;;;;;;;14.25;65.49;100931.91;5045936;28;20052;-60
2022/07/02 00:07:52;;;;;;;3.03;1.90;;;;;;;14.23;65.24;100923.81;5053991;28;20049;-60
2022/07/02 00:10:20;;;;;;;3.28;1.73;;;;;;;14.18;65.13;100924.81;5053873;28;20413;-60
2022/07/02 00:12:48;;;;;;;3.63;1.92;;;;;;;14.15;65.95;100917.06;5053502;28;20049;-60
2022/07/02 00:15:16;;;;;;;3.28;1.58;;;;;;;14.14;65.99;100929.41;5046407;28;20049;-60
2022/07/02 00:17:45;;;;;;;2.88;1.80;;;;;;;14.14;65.80;100925.78;5033916;28;20054;-60
2022/07/02 00:20:13;;;;;;;3.03;1.98;;;;;;;14.14;65.63;100929.41;5042243;28;20049;-60
2022/07/02 00:22:44;;;;;;;2.80;1.73;;;;;;;14.12;66.22;100928.09;5053700;28;20064;-60
2022/07/02 00:25:12;;;;;;;4.07;1.90;;;;;;;14.07;66.50;100936.63;5053896;28;20079;-60
2022/07/02 00:27:43;;;;;;;2.75;1.70;;;;;;;13.98;66.33;100931.03;5053391;28;20053;-60
2022/07/02 00:30:13;;;;;;;3.47;2.03;;;;;;;14.00;66.41;100937.94;5053728;28;20057;-60
2022/07/02 00:32:42;;;;;;;4.07;1.95;;;;;;;13.96;66.61;100930.53;5051197;28;20056;-60
2022/07/02 00:35:11;;;;;;;2.38;1.80;;;;;;;13.98;66.91;100934.66;5051109;28;20060;-60
2022/07/02 00:37:40;;;;;;;4.68;1.95;;;;;;;13.98;66.63;100933.81;5053198;28;20053;-60
2022/07/02 00:40:09;;;;;;;2.38;1.80;;;;;;;13.96;66.37;100936.13;5053401;28;20052;-60
2022/07/02 00:42:37;;;;;;;3.83;2.00;;;;;;;13.92;66.55;100929.53;5047264;28;20049;-60
2022/07/02 00:45:07;;;;;;;3.58;2.00;;;;;;;13.90;66.70;100924.28;5053462;28;20068;-60
2022/07/02 00:47:37;;;;;;;4.00;1.80;;;;;;;13.91;66.84;100937.09;5047849;28;20041;-60
2022/07/02 00:50:05;;;;;;;2.28;1.92;;;;;;;13.90;66.44;100920.63;5053284;28;20053;-60
2022/07/02 00:52:32;;;;;;;4.38;2.15;;;;;;;13.90;66.32;100920.63;5053265;28;20053;-60
2022/07/02 00:55:02;;;;;;;3.45;2.20;;;;;;;13.79;66.62;100926.53;5053081;28;20049;-60
2022/07/02 00:57:32;;;;;;;3.53;2.13;;;;;;;13.78;66.35;100929.66;5053270;28;20061;-60
2022/07/02 00:59:59;;;;;;;3.35;1.90;;;;;;;13.73;66.50;100933.44;5052566;28;20437;-60
2022/07/02 01:02:28;;;;;;;3.35;2.35;;;;;;;13.72;66.96;100937.38;5048275;28;20060;-60
2022/07/02 01:04:56;;;;;;;2.75;1.80;;;;;;;13.73;66.43;100941.84;5052410;28;20061;-60
2022/07/02 01:07:25;;;;;;;4.07;2.03;;;;;;;13.68;67.08;100929.97;5052923;28;20049;-60
2022/07/02 01:12:43;;;;;;;3.90;2.10;;;;;;;13.63;67.31;100939.34;5058610;28;20056;-60
2022/07/02 01:15:11;;;;;;;2.67;2.10;;;;;;;13.61;67.47;100936.03;5045835;28;20053;-60
2022/07/02 01:17:38;;;;;;;3.22;1.85;;;;;;;13.63;67.65;100939.34;5039811;28;20428;-60
2022/07/02 01:20:07;;;;;;;4.68;2.28;;;;;;;13.60;67.50;100932.41;5048425;28;20057;-60
2022/07/02 01:22:37;;;;;;;3.77;2.13;;;;;;;13.56;67.21;100939.78;5051320;28;20045;-60
2022/07/02 01:25:06;;;;;;;4.13;2.03;;;;;;;13.55;67.53;100932.56;5052766;28;20955;-60
2022/07/02 01:27:33;;;;;;;2.90;2.03;;;;;;;13.51;67.42;100930.72;5052602;28;20075;-60
2022/07/02 01:30:01;;;;;;;3.13;2.00;;;;;;;13.47;67.45;100924.94;5052259;28;20056;-60
2022/07/02 01:32:28;;;;;;;3.28;2.08;;;;;;;13.48;67.18;100928.56;5045587;28;20048;-60
2022/07/02 01:35:03;;;;;;;3.28;2.03;;;;;;;13.36;67.38;100927.19;5051903;28;20477;-60
2022/07/02 01:37:30;;;;;;;2.97;2.10;;;;;;;13.36;67.61;100924.41;5052224;28;20052;-60
2022/07/02 01:39:59;;;;;;;3.03;2.35;;;;;;;13.31;67.75;100926.50;5052378;28;20052;-60
2022/07/02 01:42:26;;;;;;;3.13;2.08;;;;;;;13.32;67.80;100922.59;5052200;28;20061;-60
2022/07/02 01:44:54;;;;;;;4.38;2.05;;;;;;;13.30;67.98;100922.91;5052247;28;20370;-60
2022/07/02 01:47:21;;;;;;;4.10;2.22;;;;;;;13.20;67.88;100917.53;5042779;28;20060;-60
2022/07/02 01:49:48;;;;;;;3.85;2.08;;;;;;;13.22;68.00;100920.84;5051982;28;20477;-60
2022/07/02 01:52:16;;;;;;;2.30;1.85;;;;;;;13.21;67.81;100916.41;5052359;28;20390;-60
2022/07/02 01:54:44;;;;;;;3.92;2.50;;;;;;;13.17;68.29;100915.41;5048573;28;20053;-60
2022/07/02 01:57:13;;;;;;;2.72;1.85;;;;;;;13.15;68.06;100914.91;5052293;28;20049;-60
2022/07/02 01:59:41;;;;;;;2.67;2.00;;;;;;;13.15;68.26;100917.69;5051998;28;20052;-60
2022/07/02 02:02:09;;;;;;;4.32;2.05;;;;;;;13.09;68.43;100913.38;5048878;28;20064;-60
2022/07/02 02:04:36;;;;;;;2.58;2.05;;;;;;;13.09;68.04;100905.00;5051481;28;20053;-60
2022/07/02 02:07:05;;;;;;;3.28;2.22;;;;;;;13.04;68.14;100913.50;5052022;28;20053;-60
2022/07/02 02:09:33;;;;;;;2.67;2.05;;;;;;;13.04;68.67;100910.69;5051676;28;20371;-60
2022/07/02 02:12:00;;;;;;;3.35;2.10;;;;;;;13.04;68.51;100913.50;5051896;28;20060;-60
2022/07/02 02:14:29;;;;;;;3.45;2.10;;;;;;;13.02;68.13;100918.59;5050776;28;20365;-60
2022/07/02 02:16:56;;;;;;;5.20;2.22;;;;;;;12.98;68.67;100921.22;5045629;28;20409;-60
2022/07/02 02:19:23;;;;;;;3.20;2.13;;;;;;;12.97;68.32;100911.16;5051995;28;20056;-60
2022/07/02 02:21:51;;;;;;;5.00;2.40;;;;;;;12.93;68.94;100918.53;5051540;28;20053;-61
2022/07/02 02:24:18;;;;;;;2.80;2.22;;;;;;;12.93;69.11;100926.94;5051834;28;20440;-60
2022/07/02 02:26:45;;;;;;;5.30;2.08;;;;;;;12.90;68.67;100925.59;5051859;28;20056;-60
2022/07/02 02:29:13;;;;;;;4.38;2.00;;;;;;;12.86;68.80;100920.97;5047068;28;20064;-61
2022/07/02 02:31:41;;;;;;;2.65;2.15;;;;;;;12.85;69.31;100928.53;5045297;28;20416;-60
2022/07/02 02:34:09;;;;;;;3.22;2.20;;;;;;;12.82;69.01;100920.78;5051557;28;20056;-60
2022/07/02 02:36:36;;;;;;;3.53;2.33;;;;;;;12.82;68.91;100933.94;5051887;28;20072;-60
2022/07/02 02:39:04;;;;;;;4.07;2.30;;;;;;;12.77;68.92;100926.50;5051221;28;20059;-60
2022/07/02 02:41:31;;;;;;;3.70;2.13;;;;;;;12.77;69.09;100923.72;5046956;28;20378;-60
2022/07/02 02:43:58;;;;;;;3.88;2.78;;;;;;;12.75;68.91;100929.63;5051675;28;20059;-60
2022/07/02 02:46:26;;;;;;;2.88;1.85;;;;;;;12.67;68.78;100927.56;5051817;28;20488;-60
2022/07/02 02:48:54;;;;;;;2.40;1.95;;;;;;;12.65;69.19;100927.06;5054655;28;20060;-60
2022/07/02 02:51:23;;;;;;;3.33;2.03;;;;;;;12.64;68.68;100921.78;5055806;28;20055;-60
2022/07/02 02:53:50;;;;;;;3.58;2.13;;;;;;;12.60;69.07;100924.41;5055337;28;20049;-60
2022/07/02 02:56:17;;;;;;;2.45;2.03;;;;;;;12.57;69.33;100913.84;5051566;28;20508;-60
2022/07/02 02:58:45;;;;;;;3.13;2.25;;;;;;;12.59;69.08;100922.75;5055344;28;20053;-60
2022/07/02 03:01:12;;;;;;;3.22;2.40;;;;;;;12.55;70.03;100921.72;5055666;28;20053;-60
2022/07/02 03:03:39;;;;;;;4.03;2.20;;;;;;;12.52;70.13;100923.19;5055214;28;20044;-60
2022/07/02 03:06:08;;;;;;;3.42;2.22;;;;;;;12.51;69.68;100935.50;5054833;28;20413;-60
2022/07/02 03:08:35;;;;;;;3.72;2.45;;;;;;;12.51;70.04;100929.91;5055915;28;20064;-60
2022/07/02 03:11:03;;;;;;;4.25;3.10;;;;;;;12.48;69.93;100924.97;5050135;28;20056;-60
2022/07/02 03:13:30;;;;;;;5.43;3.20;;;;;;;12.48;69.79;100924.97;5055301;28;20049;-60
2022/07/02 03:15:57;;;;;;;5.50;2.83;;;;;;;12.36;70.24;100933.06;5041714;28;20401;-60
2022/07/02 03:18:25;;;;;;;3.63;2.00;;;;;;;12.42;70.28;100939.38;5035341;28;20383;-60
2022/07/02 03:20:52;;;;;;;2.75;2.30;;;;;;;12.46;70.12;100941.22;5034999;28;20057;-60
2022/07/02 03:23:21;;;;;;;3.03;2.17;;;;;;;12.45;69.55;100938.72;5035320;28;20053;-62
2022/07/02 03:25:48;;;;;;;3.70;2.00;;;;;;;12.44;69.65;100943.50;5035393;28;20409;-62
2022/07/02 03:28:15;;;;;;;3.13;2.00;;;;;;;12.46;69.46;100944.00;5051454;28;20076;-61
2022/07/02 03:30:43;;;;;;;3.78;2.00;;;;;;;12.47;69.62;100948.44;5055168;28;20057;-61
2022/07/02 03:33:10;;;;;;;2.63;2.00;;;;;;;12.47;68.97;100942.84;5054840;28;20053;-61
2022/07/02 03:35:37;;;;;;;3.88;2.33;;;;;;;12.47;68.94;100939.25;5054791;28;20053;-62
2022/07/02 03:38:04;;;;;;;2.67;2.10;;;;;;;12.39;69.34;100950.03;5048526;28;20053;-62
2022/07/02 03:40:33;;;;;;;3.03;2.40;;;;;;;12.37;69.18;100949.53;5054867;28;20053;-61
2022/07/02 03:43:00;;;;;;;3.75;2.50;;;;;;;12.37;69.72;100957.09;5054316;28;20057;-62
2022/07/02 03:45:28;;;;;;;5.93;2.72;;;;;;;12.39;70.01;100946.44;5054744;28;20057;-61
2022/07/02 03:47:55;;;;;;;4.53;2.65;;;;;;;12.39;70.18;100960.41;5054575;28;20433;-61
2022/07/02 03:50:22;;;;;;;5.05;2.55;;;;;;;12.38;70.58;100955.94;5054793;28;20056;-62
2022/07/02 03:52:50;;;;;;;4.50;2.70;;;;;;;12.39;70.45;100952.03;5050331;28;20057;-62
2022/07/02 03:55:17;;;;;;;3.17;2.42;;;;;;;12.41;70.38;100949.75;5054229;28;20398;-61
2022/07/02 03:57:46;;;;;;;4.35;3.00;;;;;;;12.36;70.67;100947.03;5054291;28;20053;-61
2022/07/02 04:00:14;;;;;;;4.10;2.40;;;;;;;12.38;70.67;100951.16;5054021;28;20063;-61
2022/07/02 04:02:41;;;;;;;3.58;2.67;;;;;;;12.47;70.30;100947.63;5054376;28;20454;-61
2022/07/02 04:05:08;;;;;;;4.25;2.50;;;;;;;12.53;70.19;100949.16;5053682;28;20068;-61
2022/07/02 04:07:36;;;;;;;3.90;2.22;;;;;;;12.50;70.19;100949.81;5049865;28;20045;-61
2022/07/02 04:10:04;;;;;;;4.07;2.47;;;;;;;12.55;69.88;100956.06;5053980;28;20053;-61
2022/07/02 04:12:31;;;;;;;3.65;2.78;;;;;;;12.59;70.09;100954.31;5053755;28;20516;-61
2022/07/02 04:15:00;;;;;;;4.25;2.67;;;;;;;12.64;69.52;100963.72;5048333;28;20052;-61
2022/07/02 04:17:27;;;;;;;3.40;2.22;;;;;;;12.65;69.90;100965.38;5034124;28;20239;-60
2022/07/02 04:19:55;;;;;;;6.13;2.50;;;;;;;12.68;69.56;100960.00;5033525;28;20054;-61
2022/07/02 04:22:22;;;;;;;3.17;2.30;;;;;;;12.71;69.95;100959.34;5048234;28;20056;-61
2022/07/02 04:24:50;;;;;;;3.30;2.67;;;;;;;12.81;69.93;100949.88;5053633;28;20061;-62
2022/07/02 04:27:18;;;;;;;4.95;2.60;;;;;;;12.83;69.64;100952.34;5043345;28;20060;-61
2022/07/02 04:29:45;;;;;;;3.80;2.10;;;;;;;12.91;69.65;100946.81;5033322;28;20413;-61
2022/07/02 04:32:14;;;;;;;3.55;2.75;;;;;;;12.96;69.52;100952.28;5033527;28;20060;-61
2022/07/02 04:34:42;;;;;;;4.15;2.50;;;;;;;12.99;69.58;100948.84;5033277;28;20049;-61
2022/07/02 04:37:09;;;;;;;3.40;2.67;;;;;;;13.05;69.90;100959.91;5043321;28;20057;-61
2022/07/02 04:39:36;;;;;;;3.78;2.92;;;;;;;13.08;69.51;100953.66;5053396;28;20053;-61
2022/07/02 04:42:04;;;;;;;4.65;2.50;;;;;;;13.17;68.92;100958.19;5053130;28;20053;-61
2022/07/02 04:44:31;;;;;;;3.03;2.03;;;;;;;13.24;68.80;100954.91;5053225;28;20049;-61
2022/07/02 04:46:58;;;;;;;4.65;2.55;;;;;;;13.31;68.34;100948.88;5052906;28;20489;-61
2022/07/02 04:49:27;;;;;;;5.13;2.90;;;;;;;13.38;68.15;100947.28;5053207;28;20057;-61
2022/07/02 04:51:54;;;;;;;5.25;2.65;;;;;;;13.43;68.17;100953.91;5049130;28;20060;-62
2022/07/02 04:54:22;;;;;;;4.72;3.05;;;;;;;13.47;68.28;100957.72;5053090;28;20045;-61
2022/07/02 04:56:49;;;;;;;4.63;2.50;;;;;;;13.55;67.69;100954.13;5053157;28;20409;-61
2022/07/02 04:59:16;;;;;;;5.18;2.60;;;;;;;13.60;68.06;100951.16;5053331;28;20057;-61
2022/07/02 05:01:44;;;;;;;4.57;2.42;;;;;;;13.64;67.60;100952.16;5052996;28;20064;-61
2022/07/02 05:04:11;;;;;;;5.28;2.70;;;;;;;13.69;67.79;100949.25;5052999;28;20068;-61
2022/07/02 05:06:40;;;;;;;5.30;2.70;;;;;;;13.74;67.89;100946.28;5045246;28;20563;-61
2022/07/02 05:09:07;;;;;;;3.90;2.50;;;;;;;13.80;67.74;100950.59;5052745;28;20069;-61
2022/07/02 05:11:35;;;;;;;4.28;3.10;;;;;;;13.91;68.00;100953.09;5052449;28;20500;-61
2022/07/02 05:14:02;;;;;;;4.25;2.63;;;;;;;14.00;67.54;100939.94;5052255;28;20416;-61
2022/07/02 05:16:29;;;;;;;4.10;2.90;;;;;;;14.04;67.89;100940.09;5034793;28;20445;-61
2022/07/02 05:18:57;;;;;;;4.72;3.13;;;;;;;14.15;67.17;100942.28;5032602;28;20056;-61
2022/07/02 05:21:25;;;;;;;6.40;3.20;;;;;;;14.24;67.34;100944.25;5051535;28;20409;-61
2022/07/02 05:23:53;;;;;;;3.88;2.58;;;;;;;14.35;67.33;100945.59;5052718;28;20401;-61
2022/07/02 05:26:21;;;;;;;3.63;2.80;;;;;;;14.41;67.09;100945.09;5053119;28;20060;-61
2022/07/02 05:28:48;;;;;;;5.63;3.15;;;;;;;14.48;66.88;100949.38;5051617;28;20381;-61
2022/07/02 05:31:15;;;;;;;4.82;3.17;;;;;;;14.54;66.92;100962.09;5032939;28;20060;-61
2022/07/02 05:33:42;;;;;;;4.72;3.05;;;;;;;14.57;66.87;100961.44;5033213;28;20057;-61
2022/07/02 05:36:10;;;;;;;4.38;2.72;;;;;;;14.64;66.71;100956.19;5045776;28;20056;-61
2022/07/02 05:38:37;;;;;;;6.90;3.42;;;;;;;14.71;66.08;100956.50;5052454;28;20049;-61
2022/07/02 05:41:06;;;;;;;4.47;2.92;;;;;;;14.75;66.11;100960.28;5052592;28;20053;-61
2022/07/02 05:43:34;;;;;;;3.67;2.63;;;;;;;14.87;65.74;100962.44;5052323;28;20417;-61
2022/07/02 05:46:01;;;;;;;4.15;2.85;;;;;;;14.98;65.40;100962.91;5052431;28;20053;-61
2022/07/02 05:48:29;;;;;;;4.70;2.78;;;;;;;15.06;65.32;100961.25;5048987;28;20057;-61
2022/07/02 05:50:56;;;;;;;5.70;2.90;;;;;;;15.15;65.13;100953.66;5049264;28;20477;-61
2022/07/02 05:53:23;;;;;;;3.83;2.70;;;;;;;15.25;65.00;100955.28;5052449;28;20056;-61
2022/07/02 05:55:51;;;;;;;5.47;3.00;;;;;;;15.33;64.56;100949.63;5052462;28;20060;-61
2022/07/02 05:58:19;;;;;;;3.92;2.45;;;;;;;15.42;64.74;100961.66;5052130;28;20378;-61
2022/07/02 06:00:47;;;;;;;4.20;2.53;;;;;;;15.50;64.29;100967.59;5052404;28;20053;-61
2022/07/02 06:03:14;;;;;;;3.72;2.70;;;;;;;15.60;64.43;100958.78;5045218;28;20045;-61
2022/07/02 06:08:26;;;;;;;5.25;2.97;;;;;;;15.89;64.17;100960.00;5058161;28;20060;-61
2022/07/02 06:10:54;;;;;;;3.88;2.47;;;;;;;15.97;64.29;100970.38;5052201;28;20064;-61
2022/07/02 06:13:22;;;;;;;3.78;2.90;;;;;;;15.97;64.13;100964.75;5052200;28;20057;-61
2022/07/02 06:15:50;;;;;;;4.27;2.87;;;;;;;16.06;63.90;100965.50;5039365;28;20045;-61
2022/07/02 06:18:17;;;;;;;3.85;2.90;;;;;;;16.23;63.83;100965.41;5034476;28;20124;-61
2022/07/02 06:20:45;;;;;;;6.70;2.72;;;;;;;16.38;63.40;100966.00;5049951;28;20057;-61
2022/07/02 06:23:12;;;;;;;4.07;2.92;;;;;;;16.47;63.02;100961.13;5055538;28;20401;-61
2022/07/02 06:25:39;;;;;;;4.20;2.97;;;;;;;16.59;62.96;100961.19;5056272;28;20056;-61
2022/07/02 06:28:07;;;;;;;5.05;2.78;;;;;;;16.76;62.82;100965.03;5055520;28;20053;-61
2022/07/02 06:30:35;;;;;;;6.57;2.58;;;;;;;16.87;62.65;100969.09;5055830;28;20370;-61
2022/07/02 06:33:02;;;;;;;3.92;2.65;;;;;;;16.99;62.34;100971.94;5048035;28;20053;-61
2022/07/02 06:35:30;;;;;;;4.13;2.45;;;;;;;17.12;62.22;100977.63;5055664;28;20049;-61
2022/07/02 06:37:57;;;;;;;4.13;2.63;;;;;;;17.26;62.10;100975.34;5055058;28;20064;-61
2022/07/02 06:40:24;;;;;;;3.90;2.50;;;;;;;17.40;61.83;100975.81;5055686;28;20053;-61
2022/07/02 06:42:52;;;;;;;3.83;2.50;;;;;;;17.56;62.19;100980.78;5055362;28;20063;-61
2022/07/02 06:45:19;;;;;;;2.70;2.30;;;;;;;17.67;61.93;100987.59;5055287;28;20055;-61
2022/07/02 06:47:48;;;;;;;3.78;2.45;;;;;;;17.80;61.96;100992.06;5050824;28;20053;-61
2022/07/02 06:50:18;;;;;;;3.00;2.20;;;;;;;17.92;61.20;100985.66;5055346;28;20503;-61
2022/07/02 06:52:45;;;;;;;3.97;2.20;;;;;;;17.93;60.98;100975.19;5055138;28;20463;-61
2022/07/02 06:55:13;;;;;;;3.95;2.10;;;;;;;18.11;60.79;100968.16;5054857;28;20048;-61
2022/07/02 06:57:40;;;;;;;3.97;2.22;;;;;;;18.24;61.08;100972.59;5055132;28;20060;-61
2022/07/02 07:00:08;;;;;;;3.40;2.17;;;;;;;18.33;60.80;100963.19;5052921;28;20064;-61
2022/07/02 07:02:36;;;;;;;5.10;2.53;;;;;;;18.49;60.30;100977.38;5052422;28;20504;-60
2022/07/02 07:05:05;;;;;;;4.30;2.08;;;;;;;18.63;59.89;100958.88;5054319;28;20064;-60
2022/07/02 07:07:34;;;;;;;4.72;2.10;;;;;;;18.79;59.99;100963.78;5054797;28;20440;-59
2022/07/02 07:10:02;;;;;;;3.13;1.83;;;;;;;18.90;59.28;100959.31;5054698;28;20057;-61
2022/07/02 07:12:30;;;;;;;3.03;1.92;;;;;;;19.03;57.56;100963.69;5054723;28;20057;-60
2022/07/02 07:15:00;;;;;;;2.50;1.52;;;;;;;19.14;57.04;100966.81;5033206;28;20049;-61
2022/07/02 07:17:27;;;;;;;2.03;1.40;;;;;;;19.32;55.95;100963.66;5050198;28;20067;-61
2022/07/02 07:19:55;;;;;;;3.65;1.75;;;;;;;19.42;55.69;100958.31;5034012;28;20057;-61
2022/07/02 07:22:26;;;;;;;2.40;1.50;;;;;;;19.61;55.04;100959.59;5030185;28;20053;-61
2022/07/02 07:24:53;;;;;;;3.00;1.55;;;;;;;19.70;53.82;100957.44;5026784;28;20057;-60
2022/07/02 07:27:20;;;;;;;2.40;1.30;;;;;;;19.87;53.82;100957.06;5033235;28;20068;-61
2022/07/02 07:29:48;;;;;;;4.25;1.70;;;;;;;20.04;53.30;100943.72;5035544;28;20064;-61
2022/07/02 07:32:15;;;;;;;2.78;1.63;;;;;;;20.18;52.24;100960.19;5031753;28;20632;-61
2022/07/02 07:34:42;;;;;;;2.33;1.40;;;;;;;20.35;52.66;100958.97;5030627;28;20049;-61
2022/07/02 07:37:10;;;;;;;2.20;1.30;;;;;;;20.43;50.02;100949.44;5029182;28;20076;-60
2022/07/02 07:39:39;;;;;;;1.85;0.90;;;;;;;20.42;46.36;100945.81;5034160;28;20057;-60
2022/07/02 07:42:07;;;;;;;2.35;0.80;;;;;;;20.51;45.19;100944.78;5033261;28;20413;-61
2022/07/02 07:44:34;;;;;;;2.20;0.75;;;;;;;20.55;44.96;100945.69;5035433;28;20048;-60
2022/07/02 07:47:01;;;;;;;3.95;0.80;;;;;;;20.70;44.11;100947.66;5053707;28;20052;-61
2022/07/02 07:49:29;;;;;;;3.95;0.82;;;;;;;20.87;43.55;100947.22;5038299;28;20065;-61
2022/07/02 07:51:56;;;;;;;1.42;0.60;;;;;;;20.94;43.43;100943.72;5039318;28;20485;-60
2022/07/02 07:54:24;;;;;;;2.50;0.73;;;;;;;21.07;42.00;100938.69;5031366;28;20427;-60
2022/07/02 07:56:53;;;;;;;1.60;0.70;;;;;;;21.29;42.06;100939.91;5032006;28;20049;-61
2022/07/02 07:59:20;;;;;;;2.38;0.90;;;;;;;21.88;41.25;100943.38;5032887;28;20057;-61
2022/07/02 08:01:47;;;;;;;1.63;0.70;;;;;;;23.06;39.39;100939.41;5032854;28;20045;-60
2022/07/02 08:04:18;;;;;;;1.73;0.90;;;;;;;24.28;36.46;100939.66;5034612;28;20453;-61
2022/07/02 08:06:45;;;;;;;1.85;0.98;;;;;;;25.18;34.13;100932.34;5032893;28;20057;-61
2022/07/02 08:09:13;;;;;;;2.00;0.90;;;;;;;25.89;33.07;100931.63;5030532;28;20084;-61
2022/07/02 08:11:40;;;;;;;2.75;0.90;;;;;;;26.78;31.05;100932.66;5032979;28;20053;-60
2022/07/02 08:14:09;;;;;;;2.20;0.80;;;;;;;27.04;30.58;100931.28;5031871;28;20057;-61
2022/07/02 08:16:36;;;;;;;3.35;1.00;;;;;;;28.35;29.51;100929.88;5030629;28;20053;-61
2022/07/02 08:19:03;;;;;;;1.85;0.80;;;;;;;29.52;28.33;100917.25;5033651;28;20064;-62
2022/07/02 08:21:31;;;;;;;1.58;0.70;;;;;;;30.54;25.92;100915.84;5031020;28;20061;-61
2022/07/02 08:23:58;;;;;;;3.97;0.98;;;;;;;30.96;25.77;100924.06;5031675;28;20052;-59
2022/07/02 08:26:25;;;;;;;1.42;0.65;;;;;;;30.84;24.82;100945.63;5039463;28;20080;-59
2022/07/02 08:28:53;;;;;;;1.33;0.70;;;;;;;31.75;23.77;100928.78;5040057;28;20063;-60
2022/07/02 08:31:21;;;;;;;1.20;0.70;;;;;;;31.48;22.37;100931.13;5038385;28;20494;-60
2022/07/02 08:33:49;;;;;;;2.28;0.65;;;;;;;31.83;22.50;100923.63;5032375;28;20072;-60
2022/07/02 08:36:16;;;;;;;1.55;0.82;;;;;;;31.97;22.47;100919.56;5041128;28;20044;-60
2022/07/02 08:38:43;;;;;;;1.95;0.70;;;;;;;31.02;23.09;100924.34;5036868;28;20057;-60
2022/07/02 08:41:13;;;;;;;2.35;0.85;;;;;;;31.57;22.91;100927.59;5030938;28;20053;-59
2022/07/02 08:43:42;;;;;;;3.17;0.80;;;;;;;33.00;21.43;100920.78;5032671;28;20489;-60
2022/07/02 08:46:10;;;;;;;;;;;;;;;33.95;20.55;100923.09;5029895;28;20413;-60
2022/07/02 08:48:40;;;;;;;1.85;0.80;;;;;;;33.05;20.99;100919.41;5032389;28;19921;-60
2022/07/02 08:51:10;;;;;;;1.65;0.70;;;;;;;33.59;20.80;100924.28;5030987;28;20418;-60
2022/07/02 08:53:39;;;;;;;1.33;0.80;;;;;;;34.64;20.08;100918.59;5032389;28;20501;-60
2022/07/02 08:56:07;;;;;;;1.67;0.90;;;;;;;36.31;18.04;100917.97;5050749;28;20053;-60
2022/07/02 08:58:35;;;;;;;;;;;;;;;36.49;17.71;100915.03;5037515;28;20053;-60
2022/07/02 09:01:04;;;;;;;1.55;0.68;;;;;;;37.28;16.96;100908.41;5032056;28;19928;-60
2022/07/02 09:03:33;;;;;;;1.52;0.70;;;;;;;37.50;16.57;100899.41;5031577;28;20058;-60
2022/07/02 09:06:05;;;;;;;1.98;0.80;;;;;;;37.81;16.21;100904.13;5036976;28;20046;-60
2022/07/02 09:08:34;;;;;;;2.55;0.60;;;;;;;37.13;16.58;100899.63;5031629;28;20049;-60
2022/07/02 09:11:01;;;;;;;1.80;0.60;;;;;;;36.70;16.57;100904.53;5029420;28;20056;-60
2022/07/02 09:13:31;;;;;;;2.53;0.70;;;;;;;36.70;17.50;100895.03;5031528;28;20056;-60
2022/07/02 09:16:00;;;;;;;1.80;0.70;;;;;;;37.80;16.38;100890.06;5028826;28;20054;-60
2022/07/02 09:18:27;;;;;;;;;;;;;;;38.17;15.95;100887.69;5032199;28;20049;-60
2022/07/02 09:20:55;;;;;;;2.33;0.80;;;;;;;39.03;15.24;100885.09;5029461;28;19925;-61
2022/07/02 09:23:24;;;;;;;1.33;0.90;;;;;;;38.03;14.94;100879.72;5032209;28;20053;-60
2022/07/02 09:25:52;;;;;;;1.95;0.80;;;;;;;38.81;14.98;100877.56;5042866;28;20052;-60
2022/07/02 09:28:20;;;;;;;1.42;0.70;;;;;;;38.45;14.64;100890.34;5028006;28;20409;-60
2022/07/02 09:30:47;;;;;;;1.63;0.80;;;;;;;39.82;14.20;100874.59;5012764;28;20060;-60
2022/07/02 09:33:32;;;;;;;1.77;0.70;;;;;;;39.80;14.02;100878.06;5028285;28;20056;-61
2022/07/02 09:36:00;;;;;;;1.95;0.88;;;;;;;40.60;12.93;100866.00;5031634;28;20403;-61
2022/07/02 09:38:29;;;;;;;1.13;0.60;;;;;;;39.78;13.27;100855.22;5035485;28;20053;-60
2022/07/02 09:40:58;;;;;;;1.98;0.80;;;;;;;40.57;13.09;100864.13;5029567;28;20057;-61
2022/07/02 09:43:27;;;;;;;1.38;0.80;;;;;;;40.26;13.13;100862.72;5032229;28;20386;-60
2022/07/02 09:45:55;;;;;;;4.10;0.80;;;;;;;40.16;13.15;100867.13;5027919;28;20076;-61
2022/07/02 09:48:22;;;;;;;1.83;0.77;;;;;;;40.31;13.46;100864.91;5030203;28;20053;-61
2022/07/02 09:50:50;;;;;;;1.70;0.68;;;;;;;39.29;13.76;100850.25;5032224;28;20061;-61
2022/07/02 09:53:18;;;;;;;2.38;0.77;;;;;;;39.14;13.51;100856.13;5029814;28;20060;-60
2022/07/02 09:55:49;;;;;;;;;;;;;;;37.81;14.48;100856.78;5029853;28;20062;-61
2022/07/02 09:58:23;;;;;;;;;;;;;;;39.02;13.55;100855.16;5037030;28;19944;-61
2022/07/02 10:00:50;;;;;;;;;;;;;;;40.14;13.12;100861.00;5031157;28;20385;-61
2022/07/02 10:03:17;;;;;;;;;;;;;;;39.97;13.03;100855.75;5027982;28;20028;-62
2022/07/02 10:05:46;;;;;;;;;;;;;;;39.95;13.59;100848.84;5029974;28;19932;-62
2022/07/02 10:08:15;;;;;;;;;;;;;;;40.37;12.74;100859.94;5038350;28;19920;-62
2022/07/02 10:10:43;;;;;;;;;;;;;;;40.64;12.70;100851.97;5037821;28;19936;-62
2022/07/02 10:13:12;;;;;;;;;;;;;;;41.19;12.33;100844.22;5032161;28;20337;-62
2022/07/02 10:15:41;;;;;;;;;;;;;;;43.18;11.34;100842.16;5030615;28;19928;-62
2022/07/02 10:18:08;;;;;;;;;;;;;;;43.31;11.47;100843.75;5038874;28;19928;-62
2022/07/02 10:20:35;;;;;;;;;;;;;;;41.81;12.17;100849.63;5037699;28;19928;-62
2022/07/02 10:23:03;;;;;;;;;;;;;;;41.29;12.28;100847.75;5031166;28;19921;-62
2022/07/02 10:25:31;;;;;;;;;;;;;;;41.24;12.69;100837.59;5026840;28;19925;-62
2022/07/02 10:27:58;;;;;;;;;;;;;;;41.56;12.41;100843.41;5032912;28;19928;-62
2022/07/02 10:30:28;;;;;;;;;;;;;;;41.33;12.51;100831.56;5039430;28;20375;-62
2022/07/02 10:33:00;;;;;;;;;;;;;;;42.93;12.17;100825.69;5012697;28;20297;-62
2022/07/02 10:35:27;;;;;;;;;;;;;;;42.35;11.36;100826.94;5012558;28;19928;-62
2022/07/02 10:37:58;;;;;;;;;;;;;;;43.57;11.49;100817.78;5012340;28;19926;-61
2022/07/02 10:40:25;;;;;;;;;;;;;;;44.80;10.13;100828.59;5017356;28;20672;-62
2022/07/02 10:42:53;;;;;;;;;;;;;;;43.23;11.44;100820.03;5049681;28;19927;-61
2022/07/02 10:45:21;;;;;;;;;;;;;;;43.10;11.25;100816.84;5050034;28;19924;-60
2022/07/02 10:47:58;;;;;;;;;;;;;;;43.42;11.71;100817.31;5031930;28;19921;-61
2022/07/02 10:50:26;;;;;;;;;;;;;;;43.80;11.19;100816.94;5031861;28;19921;-60
2022/07/02 10:52:53;;;;;;;;;;;;;;;43.48;11.40;100811.44;5049051;28;20022;-60
2022/07/02 10:55:29;;;;;;;;;;;;;;;42.24;12.16;100811.50;5051781;28;19932;-61
2022/07/02 10:57:57;;;;;;;;;;;;;;;41.83;12.95;100798.03;5051929;28;19921;-61
2022/07/02 11:00:27;;;;;;;;;;;;;;;42.41;12.01;100794.72;5051659;28;19921;-59
2022/07/02 11:02:56;;;;;;;;;;;;;;;42.09;12.19;100788.31;5047993;28;19969;-59
2022/07/02 11:05:23;;;;;;;;;;;;;;;42.00;12.11;100795.22;5051331;28;19920;-60
2022/07/02 11:07:50;;;;;;;;;;;;;;;42.59;11.85;100784.66;5047971;28;19928;-60
2022/07/02 11:10:17;;;;;;;;;;;;;;;42.09;12.35;100800.03;5042103;28;19927;-60
2022/07/02 11:12:47;;;;;;;;;;;;;;;42.32;12.00;100781.16;5055597;28;19921;-59
2022/07/02 11:15:17;;;;;;;;;;;;;;;41.85;12.51;100788.75;5054987;28;19927;-59
2022/07/02 11:17:48;;;;;;;;;;;;;;;43.00;12.21;100787.03;5038581;28;20288;-60
2022/07/02 11:20:22;;;;;;;;;;;;;;;42.14;12.24;100782.44;5048162;28;20392;-62
2022/07/02 11:22:49;;;;;;;;;;;;;;;43.63;11.55;100772.97;5015908;28;19929;-61
2022/07/02 11:25:16;;;;;;;;;;;;;;;44.11;11.37;100768.75;5015757;28;19925;-59
2022/07/02 11:27:43;;;;;;;;;;;;;;;44.36;10.76;100764.53;5015854;28;20393;-64
2022/07/02 11:30:10;;;;;;;;;;;;;;;44.85;10.46;100760.16;5042794;28;19928;-60
2022/07/02 11:32:37;;;;;;;;;;;;;;;45.14;10.25;100747.53;5054734;28;19928;-61
2022/07/02 11:35:05;;;;;;;;;;;;;;;43.44;11.30;100756.00;5055153;28;19921;-59
2022/07/02 11:37:34;;;;;;;;;;;;;;;43.59;11.34;100755.66;5054234;28;19928;-59
2022/07/02 11:40:01;;;;;;;;;;;;;;;42.70;11.69;100752.41;5047900;28;19928;-60
2022/07/02 11:42:37;;;;;;;;;;;;;;;42.73;11.67;100754.25;5052198;28;20289;-59
2022/07/02 11:45:05;;;;;;;;;;;;;;;43.23;12.13;100743.00;5054738;28;19927;-59